createdAt,value
2023-03-27T00:01:53.472Z,10.55
2023-03-27T00:04:25.139Z,5.75
2023-03-27T00:06:56.684Z,6.85
2023-03-27T00:09:29.629Z,10.98
2023-03-27T00:12:01.315Z,8.43
2023-03-27T00:14:32.836Z,9.32
2023-03-27T00:17:04.419Z,9.17
2023-03-27T00:19:36.013Z,7.05
2023-03-27T00:22:07.568Z,7.85
2023-03-27T00:24:39.133Z,9.80
2023-03-27T00:27:10.709Z,7.05
2023-03-27T00:29:42.296Z,11.00
2023-03-27T00:32:13.830Z,8.20
2023-03-27T00:34:45.371Z,7.32
2023-03-27T00:37:16.920Z,9.67
2023-03-27T00:39:48.457Z,6.50
2023-03-27T00:42:22.931Z,7.45
2023-03-27T00:44:54.561Z,8.27
2023-03-27T00:47:32.226Z,4.95
2023-03-27T00:50:09.066Z,6.32
2023-03-27T00:52:44.421Z,7.80
2023-03-27T00:55:18.972Z,6.07
2023-03-27T00:57:56.636Z,6.43
2023-03-27T01:00:28.319Z,6.32
2023-03-27T01:03:03.248Z,6.25
2023-03-27T01:05:36.644Z,4.55
2023-03-27T01:08:08.240Z,6.53
2023-03-27T01:11:05.099Z,4.88
2023-03-27T01:14:13.993Z,6.22
2023-03-27T01:16:57.590Z,5.32
2023-03-27T01:19:54.206Z,8.05
2023-03-27T01:22:58.110Z,7.18
2023-03-27T01:26:36.504Z,6.32
2023-03-27T01:32:39.982Z,8.18
2023-03-27T01:35:36.274Z,8.17
2023-03-27T01:38:07.829Z,3.33
2023-03-27T01:40:51.453Z,3.50
2023-03-27T01:43:41.729Z,4.15
2023-03-27T01:46:23.714Z,3.50
2023-03-27T01:49:08.327Z,3.85
2023-03-27T01:51:43.976Z,3.25
2023-03-27T01:54:22.732Z,4.47
2023-03-27T01:57:20.060Z,6.18
2023-03-27T02:00:17.966Z,5.38
2023-03-27T02:03:18.516Z,5.20
2023-03-27T02:06:05.522Z,6.07
2023-03-27T02:08:50.326Z,3.92
2023-03-27T02:11:26.186Z,5.35
2023-03-27T02:14:02.538Z,3.25
2023-03-27T02:16:39.091Z,2.53
2023-03-27T02:19:16.513Z,1.70
2023-03-27T02:21:48.144Z,2.05
2023-03-27T02:24:19.757Z,1.50
2023-03-27T02:26:59.862Z,1.10
2023-03-27T02:30:05.626Z,3.05
2023-03-27T02:32:43.030Z,2.55
2023-03-27T02:35:36.483Z,1.67
2023-03-27T02:38:36.247Z,2.42
2023-03-27T02:41:20.058Z,2.00
2023-03-27T02:43:51.583Z,2.75
2023-03-27T02:46:46.956Z,2.23
2023-03-27T02:49:32.842Z,1.88
2023-03-27T02:52:09.873Z,2.00
2023-03-27T02:54:47.507Z,1.65
2023-03-27T02:57:25.208Z,2.60
2023-03-27T03:00:00.839Z,2.50
2023-03-27T03:02:34.308Z,2.33
2023-03-27T03:05:10.804Z,2.10
2023-03-27T03:07:42.386Z,3.23
2023-03-27T03:10:14.849Z,5.25
2023-03-27T03:12:46.478Z,4.88
2023-03-27T03:15:18.079Z,4.73
2023-03-27T03:17:49.688Z,7.07
2023-03-27T03:20:21.243Z,3.13
2023-03-27T03:22:52.798Z,3.30
2023-03-27T03:25:24.560Z,5.68
2023-03-27T03:27:56.121Z,5.22
2023-03-27T03:30:29.066Z,4.77
2023-03-27T03:33:00.675Z,5.78
2023-03-27T03:35:32.307Z,3.95
2023-03-27T03:38:03.884Z,4.03
2023-03-27T03:40:35.425Z,5.88
2023-03-27T03:43:06.954Z,8.95
2023-03-27T03:45:38.488Z,5.80
2023-03-27T03:48:10.074Z,6.40
2023-03-27T03:50:42.918Z,3.92
2023-03-27T03:53:15.762Z,7.05
2023-03-27T03:55:51.029Z,10.23
2023-03-27T03:58:34.554Z,5.40
2023-03-27T04:01:06.636Z,5.50
2023-03-27T04:03:38.267Z,7.85
2023-03-27T04:06:09.885Z,8.85
2023-03-27T04:08:41.480Z,9.07
2023-03-27T04:11:13.034Z,7.72
2023-03-27T04:13:44.610Z,7.38
2023-03-27T04:16:16.201Z,7.22
2023-03-27T04:18:47.828Z,8.47
2023-03-27T04:21:19.434Z,6.88
2023-03-27T04:23:50.934Z,8.73
2023-03-27T04:26:22.513Z,9.93
2023-03-27T04:28:54.257Z,7.38
2023-03-27T04:31:25.833Z,8.38
2023-03-27T04:33:57.407Z,11.55
2023-03-27T04:36:31.135Z,8.27
2023-03-27T04:39:02.968Z,12.60
2023-03-27T04:41:34.486Z,10.63
2023-03-27T04:44:06.017Z,8.45
2023-03-27T04:46:37.527Z,8.80
2023-03-27T04:49:09.078Z,9.18
2023-03-27T04:51:40.596Z,15.20
2023-03-27T04:54:12.291Z,8.93
2023-03-27T04:56:43.852Z,7.50
2023-03-27T04:59:15.369Z,9.30
2023-03-27T05:01:46.935Z,10.00
2023-03-27T05:04:18.600Z,11.27
2023-03-27T05:06:50.179Z,9.07
2023-03-27T05:09:22.239Z,9.52
2023-03-27T05:11:53.814Z,10.02
2023-03-27T05:14:25.370Z,6.85
2023-03-27T05:16:56.952Z,9.63
2023-03-27T05:19:28.484Z,7.93
2023-03-27T05:22:00.062Z,7.82
2023-03-27T05:24:31.680Z,7.10
2023-03-27T05:27:03.764Z,6.37
2023-03-27T05:29:46.858Z,8.45
2023-03-27T05:32:19.232Z,8.15
2023-03-27T05:34:50.859Z,4.00
2023-03-27T05:37:23.055Z,6.45
2023-03-27T05:39:54.631Z,10.25
2023-03-27T05:42:26.132Z,9.27
2023-03-27T05:44:57.696Z,7.00
2023-03-27T05:47:29.207Z,7.43
2023-03-27T05:50:00.819Z,12.30
2023-03-27T05:52:32.333Z,10.57
2023-03-27T05:55:05.133Z,11.63
2023-03-27T05:57:38.236Z,14.20
2023-03-27T06:00:12.415Z,14.55
2023-03-27T06:02:44.199Z,14.23
2023-03-27T06:05:16.079Z,11.53
2023-03-27T06:07:47.863Z,13.18
2023-03-27T06:10:19.868Z,12.52
2023-03-27T06:13:05.291Z,12.27
2023-03-27T06:15:40.181Z,8.63
2023-03-27T06:18:11.918Z,9.10
2023-03-27T06:20:43.437Z,9.18
2023-03-27T06:23:14.986Z,11.25
2023-03-27T06:25:46.540Z,8.60
2023-03-27T06:28:18.097Z,9.37
2023-03-27T06:30:49.985Z,10.73
2023-03-27T06:33:21.724Z,7.55
2023-03-27T06:35:54.065Z,10.60
2023-03-27T06:38:30.209Z,7.18
2023-03-27T06:41:01.750Z,10.57
2023-03-27T06:43:33.265Z,12.90
2023-03-27T06:46:06.060Z,7.90
2023-03-27T06:48:37.999Z,9.15
2023-03-27T06:51:09.731Z,10.05
2023-03-27T06:53:41.289Z,7.80
2023-03-27T06:56:12.847Z,10.50
2023-03-27T06:58:44.415Z,9.55
2023-03-27T07:01:15.968Z,8.55
2023-03-27T07:03:47.515Z,7.93
2023-03-27T07:06:19.029Z,12.03
2023-03-27T07:08:50.714Z,6.50
2023-03-27T07:11:22.300Z,8.07
2023-03-27T07:13:53.842Z,9.70
2023-03-27T07:16:25.609Z,7.88
2023-03-27T07:18:59.403Z,7.28
2023-03-27T07:21:32.798Z,11.70
2023-03-27T07:24:04.570Z,11.05
2023-03-27T07:26:36.092Z,7.05
2023-03-27T07:29:07.610Z,6.80
2023-03-27T07:31:55.712Z,7.45
2023-03-27T07:34:28.320Z,10.37
2023-03-27T07:37:00.127Z,7.40
2023-03-27T07:39:31.659Z,9.32
2023-03-27T07:42:03.657Z,10.73
2023-03-27T07:44:35.162Z,11.68
2023-03-27T07:47:06.957Z,10.52
2023-03-27T07:49:39.854Z,9.30
2023-03-27T07:52:13.290Z,6.55
2023-03-27T07:54:45.778Z,6.60
2023-03-27T07:57:17.400Z,7.00
2023-03-27T07:59:48.990Z,6.03
2023-03-27T08:02:20.585Z,4.97
2023-03-27T08:04:52.214Z,7.20
2023-03-27T08:07:23.854Z,5.57
2023-03-27T08:09:55.410Z,6.37
2023-03-27T08:12:26.948Z,5.05
2023-03-27T08:14:58.759Z,6.28
2023-03-27T08:17:31.063Z,9.68
2023-03-27T08:20:03.264Z,7.63
2023-03-27T08:22:38.814Z,5.82
2023-03-27T08:25:10.578Z,9.30
2023-03-27T08:27:44.780Z,7.80
2023-03-27T08:30:17.430Z,10.20
2023-03-27T08:32:49.333Z,5.38
2023-03-27T08:35:21.173Z,7.63
2023-03-27T08:37:52.775Z,6.38
2023-03-27T08:40:28.526Z,7.43
2023-03-27T08:43:06.732Z,9.30
2023-03-27T08:45:48.768Z,8.05
2023-03-27T08:48:26.870Z,9.45
2023-03-27T08:51:12.362Z,10.48
2023-03-27T08:53:56.238Z,9.00
2023-03-27T08:56:27.784Z,7.45
2023-03-27T08:59:00.086Z,9.05
2023-03-27T09:01:49.506Z,8.18
2023-03-27T09:04:57.496Z,9.52
2023-03-27T09:07:37.855Z,11.80
2023-03-27T09:10:37.410Z,10.47
2023-03-27T09:13:28.757Z,8.50
2023-03-27T09:16:30.899Z,8.07
2023-03-27T09:19:22.756Z,9.40
2023-03-27T09:22:00.663Z,7.43
2023-03-27T09:24:54.151Z,8.27
2023-03-27T09:27:30.365Z,8.05
2023-03-27T09:30:08.022Z,7.07
2023-03-27T09:32:40.094Z,7.53
2023-03-27T09:35:15.640Z,6.25
2023-03-27T09:37:49.412Z,5.18
2023-03-27T09:40:34.736Z,5.82
2023-03-27T09:43:15.977Z,6.63
2023-03-27T09:45:50.151Z,9.73
2023-03-27T09:48:34.157Z,6.47
2023-03-27T09:51:06.092Z,5.68
2023-03-27T09:53:37.712Z,5.73
2023-03-27T09:56:15.066Z,8.35
2023-03-27T09:58:48.655Z,7.57
2023-03-27T10:01:32.301Z,7.10
2023-03-27T10:04:13.960Z,7.78
2023-03-27T10:07:00.053Z,8.18
2023-03-27T10:09:33.868Z,8.25
2023-03-27T10:12:05.398Z,5.78
2023-03-27T10:14:43.626Z,3.85
2023-03-27T10:17:24.450Z,2.92
2023-03-27T10:20:04.794Z,6.22
2023-03-27T10:22:39.188Z,4.05
2023-03-27T10:25:18.486Z,5.27
2023-03-27T10:27:52.431Z,4.20
2023-03-27T10:30:31.612Z,3.70
2023-03-27T10:33:03.237Z,4.57
2023-03-27T10:35:37.717Z,3.97
2023-03-27T10:38:15.188Z,7.38
2023-03-27T10:40:50.568Z,8.70
2023-03-27T10:43:32.958Z,3.85
2023-03-27T10:46:09.657Z,7.22
2023-03-27T10:49:11.608Z,5.45
2023-03-27T10:52:01.667Z,7.68
2023-03-27T10:54:42.479Z,7.50
2023-03-27T10:57:23.132Z,6.53
2023-03-27T11:00:10.732Z,7.78
2023-03-27T11:02:51.012Z,7.20
2023-03-27T11:05:36.615Z,7.60
2023-03-27T11:08:27.611Z,5.32
2023-03-27T11:11:15.529Z,3.47
2023-03-27T11:13:48.049Z,5.03
2023-03-27T11:16:44.357Z,5.50
2023-03-27T11:19:37.331Z,6.10
2023-03-27T11:22:19.925Z,6.00
2023-03-27T11:25:07.902Z,9.20
2023-03-27T11:28:16.828Z,10.00
2023-03-27T11:30:54.498Z,7.93
2023-03-27T11:33:35.961Z,5.30
2023-03-27T11:36:29.327Z,4.77
2023-03-27T11:39:28.724Z,6.00
2023-03-27T11:42:09.456Z,6.15
2023-03-27T11:44:41.011Z,6.05
2023-03-27T11:47:35.875Z,5.95
2023-03-27T11:50:22.726Z,5.65
2023-03-27T11:53:17.138Z,4.32
2023-03-27T11:56:03.156Z,5.72
2023-03-27T11:58:40.539Z,6.97
2023-03-27T12:01:27.740Z,6.97
2023-03-27T12:04:35.883Z,7.18
2023-03-27T12:07:36.402Z,7.85
2023-03-27T12:10:28.447Z,8.48
2023-03-27T12:13:41.992Z,6.50
2023-03-27T12:16:31.920Z,8.15
2023-03-27T12:19:38.574Z,8.47
2023-03-27T12:22:34.033Z,4.75
2023-03-27T12:25:14.544Z,6.47
2023-03-27T12:27:55.128Z,8.05
2023-03-27T12:30:46.456Z,8.65
2023-03-27T12:33:27.142Z,8.87
2023-03-27T12:36:03.556Z,6.63
2023-03-27T12:38:41.523Z,6.93
2023-03-27T12:41:23.310Z,5.93
2023-03-27T12:44:00.539Z,8.55
2023-03-27T12:46:39.121Z,7.15
2023-03-27T12:49:10.899Z,6.68
2023-03-27T12:51:54.385Z,5.78
2023-03-27T12:54:31.219Z,7.10
2023-03-27T12:57:06.101Z,4.50
2023-03-27T12:59:53.121Z,7.23
2023-03-27T13:02:45.464Z,6.32
2023-03-27T13:05:44.838Z,7.57
2023-03-27T13:08:34.704Z,10.85
2023-03-27T13:11:23.364Z,6.17
2023-03-27T13:14:19.825Z,7.03
2023-03-27T13:16:59.673Z,7.38
2023-03-27T13:19:37.198Z,7.65
2023-03-27T13:22:24.676Z,8.93
2023-03-27T13:25:17.893Z,7.38
2023-03-27T13:28:33.329Z,8.13
2023-03-27T13:31:06.958Z,6.37
2023-03-27T13:33:42.505Z,6.03
2023-03-27T13:36:20.927Z,5.55
2023-03-27T13:38:58.918Z,5.50
2023-03-27T13:41:45.663Z,6.03
2023-03-27T13:44:26.126Z,6.10
2023-03-27T13:47:22.612Z,5.18
2023-03-27T13:50:23.612Z,5.53
2023-03-27T13:53:25.727Z,4.07
2023-03-27T13:56:25.774Z,4.65
2023-03-27T13:59:34.879Z,6.45
2023-03-27T14:02:15.176Z,6.20
2023-03-27T14:05:05.343Z,4.77
2023-03-27T14:07:48.356Z,5.77
2023-03-27T14:10:25.837Z,9.17
2023-03-27T14:13:30.137Z,7.13
2023-03-27T14:16:10.579Z,6.30
2023-03-27T14:19:09.670Z,6.10
2023-03-27T14:21:55.686Z,7.77
2023-03-27T14:24:38.606Z,5.00
2023-03-27T14:27:14.564Z,10.88
2023-03-27T14:29:46.223Z,6.32
2023-03-27T14:32:17.964Z,6.78
2023-03-27T14:37:32.581Z,6.35
2023-03-27T14:40:20.980Z,4.30
2023-03-27T14:42:55.777Z,5.05
2023-03-27T14:45:33.064Z,6.35
2023-03-27T14:48:27.311Z,7.17
2023-03-27T14:51:03.118Z,8.07
2023-03-27T14:53:37.143Z,10.43
2023-03-27T14:56:20.142Z,9.27
2023-03-27T14:58:55.362Z,8.40
2023-03-27T15:01:28.657Z,7.85
2023-03-27T15:04:01.083Z,7.13
2023-03-27T15:06:33.077Z,7.10
2023-03-27T15:09:12.785Z,5.57
2023-03-27T15:11:48.941Z,7.57
2023-03-27T15:14:27.209Z,6.88
2023-03-27T15:17:06.052Z,7.50
2023-03-27T15:19:42.992Z,4.95
2023-03-27T15:22:36.797Z,7.93
2023-03-27T15:25:19.831Z,7.18
2023-03-27T15:27:54.201Z,5.57
2023-03-27T15:30:25.814Z,5.93
2023-03-27T15:32:59.958Z,3.50
2023-03-27T15:35:42.470Z,6.70
2023-03-27T15:38:16.805Z,5.60
2023-03-27T15:41:00.451Z,6.90
2023-03-27T15:43:33.911Z,5.93
2023-03-27T15:46:19.855Z,5.28
2023-03-27T15:48:51.488Z,8.70
2023-03-27T15:51:22.971Z,4.87
2023-03-27T15:53:55.050Z,8.95
2023-03-27T15:56:35.142Z,8.20
2023-03-27T15:59:12.726Z,7.32
2023-03-27T16:01:53.560Z,7.47
2023-03-27T16:04:38.943Z,9.37
2023-03-27T16:07:24.893Z,7.78
2023-03-27T16:10:05.074Z,6.93
2023-03-27T16:12:50.326Z,5.53
2023-03-27T16:15:32.543Z,9.02
2023-03-27T16:18:18.717Z,7.13
2023-03-27T16:20:50.488Z,5.73
2023-03-27T16:23:22.063Z,8.25
2023-03-27T16:25:53.776Z,6.00
2023-03-27T16:28:25.550Z,6.35
2023-03-27T16:30:57.363Z,8.77
2023-03-27T16:33:29.158Z,6.28
2023-03-27T16:36:01.195Z,5.88
2023-03-27T16:38:33.128Z,5.10
2023-03-27T16:41:04.943Z,6.95
2023-03-27T16:43:36.460Z,6.30
2023-03-27T16:46:16.449Z,9.27
2023-03-27T16:48:48.716Z,6.97
2023-03-27T16:51:22.456Z,5.77
2023-03-27T16:53:54.239Z,7.32
2023-03-27T16:56:25.786Z,6.63
2023-03-27T16:58:57.411Z,5.93
2023-03-27T17:01:29.018Z,6.75
2023-03-27T17:04:00.565Z,6.00
2023-03-27T17:06:32.119Z,6.15
2023-03-27T17:09:06.910Z,7.72
2023-03-27T17:11:39.137Z,9.65
2023-03-27T17:14:10.643Z,7.38
2023-03-27T17:16:42.226Z,5.65
2023-03-27T17:19:13.769Z,6.65
2023-03-27T17:21:45.318Z,8.63
2023-03-27T17:24:16.870Z,7.60
2023-03-27T17:26:48.396Z,9.20
2023-03-27T17:29:20.040Z,10.73
2023-03-27T17:31:51.647Z,8.65
2023-03-27T17:34:23.194Z,6.32
2023-03-27T17:36:55.312Z,7.60
2023-03-27T17:39:26.909Z,11.63
2023-03-27T17:41:58.548Z,9.07
2023-03-27T17:44:30.071Z,8.95
2023-03-27T17:47:01.659Z,8.77
2023-03-27T17:49:33.203Z,11.80
2023-03-27T17:52:04.734Z,8.68
2023-03-27T17:54:36.234Z,10.32
2023-03-27T17:57:07.889Z,7.07
2023-03-27T17:59:39.713Z,9.52
2023-03-27T18:02:16.757Z,9.13
2023-03-27T18:04:48.915Z,8.63
2023-03-27T18:07:21.677Z,8.25
2023-03-27T18:09:53.521Z,9.85
2023-03-27T18:12:25.182Z,8.40
2023-03-27T18:14:56.802Z,6.97
2023-03-27T18:17:28.397Z,8.00
2023-03-27T18:20:00.041Z,12.70
2023-03-27T18:22:35.040Z,7.97
2023-03-27T18:25:08.380Z,8.48
2023-03-27T18:27:40.004Z,10.32
2023-03-27T18:30:14.690Z,6.72
2023-03-27T18:32:46.536Z,10.23
2023-03-27T18:35:19.679Z,7.70
2023-03-27T18:37:51.282Z,7.30
2023-03-27T18:40:23.528Z,7.20
2023-03-27T18:42:55.263Z,5.75
2023-03-27T18:45:26.828Z,7.43
2023-03-27T18:47:58.449Z,7.13
2023-03-27T18:50:30.024Z,8.55
2023-03-27T18:53:01.749Z,6.00
2023-03-27T18:55:33.354Z,7.55
2023-03-27T18:58:10.305Z,6.57
2023-03-27T19:00:45.921Z,8.00
2023-03-27T19:03:24.518Z,4.30
2023-03-27T19:06:04.474Z,5.20
2023-03-27T19:08:43.870Z,6.07
2023-03-27T19:11:15.426Z,6.45
2023-03-27T19:13:46.961Z,6.87
2023-03-27T19:16:18.479Z,7.25
2023-03-27T19:18:49.962Z,8.30
2023-03-27T19:21:21.582Z,8.75
2023-03-27T19:23:53.206Z,9.35
2023-03-27T19:26:24.758Z,8.55
2023-03-27T19:28:56.329Z,9.20
2023-03-27T19:31:27.933Z,10.63
2023-03-27T19:33:59.703Z,6.55
2023-03-27T19:36:31.886Z,6.63
2023-03-27T19:39:03.550Z,10.45
2023-03-27T19:41:35.150Z,7.57
2023-03-27T19:44:06.743Z,6.22
2023-03-27T19:46:38.277Z,6.88
2023-03-27T19:49:09.826Z,10.63
2023-03-27T19:51:41.375Z,8.70
2023-03-27T19:54:12.968Z,6.63
2023-03-27T19:56:44.646Z,8.98
2023-03-27T19:59:29.969Z,6.43
2023-03-27T20:02:02.532Z,8.90
2023-03-27T20:04:34.201Z,9.30
2023-03-27T20:07:05.940Z,7.97
2023-03-27T20:09:37.768Z,9.75
2023-03-27T20:12:09.383Z,9.05
2023-03-27T20:14:40.956Z,7.03
2023-03-27T20:17:27.092Z,6.65
2023-03-27T20:19:59.760Z,8.15
2023-03-27T20:22:31.259Z,7.57
2023-03-27T20:25:02.781Z,8.57
2023-03-27T20:27:34.334Z,7.85
2023-03-27T20:30:07.004Z,8.63
2023-03-27T20:32:38.577Z,5.33
2023-03-27T20:35:22.819Z,6.90
2023-03-27T20:37:56.146Z,6.35
2023-03-27T20:40:27.823Z,9.50
2023-03-27T20:42:59.357Z,8.23
2023-03-27T20:45:31.373Z,7.05
2023-03-27T20:48:03.125Z,8.30
2023-03-27T20:50:35.174Z,8.70
2023-03-27T20:53:07.089Z,7.80
2023-03-27T20:55:49.621Z,8.13
2023-03-27T20:58:29.714Z,5.38
2023-03-27T21:01:01.580Z,8.20
2023-03-27T21:03:35.925Z,9.43
2023-03-27T21:06:10.123Z,6.23
2023-03-27T21:08:41.770Z,9.35
2023-03-27T21:11:13.788Z,6.73
2023-03-27T21:13:45.728Z,5.77
2023-03-27T21:16:17.326Z,6.95
2023-03-27T21:18:49.088Z,10.57
2023-03-27T21:21:20.928Z,6.10
2023-03-27T21:23:52.460Z,6.22
2023-03-27T21:26:24.219Z,7.70
2023-03-27T21:28:55.779Z,7.57
2023-03-27T21:31:27.616Z,6.20
2023-03-27T21:34:00.123Z,7.30
2023-03-27T21:36:31.843Z,6.95
2023-03-27T21:39:03.639Z,9.37
2023-03-27T21:41:35.176Z,8.05
2023-03-27T21:44:06.727Z,7.38
2023-03-27T21:46:38.392Z,6.43
2023-03-27T21:49:09.979Z,7.85
2023-03-27T21:51:41.512Z,5.70
2023-03-27T21:54:13.056Z,8.02
2023-03-27T21:56:44.614Z,7.30
2023-03-27T21:59:16.174Z,7.25
2023-03-27T22:01:47.837Z,6.17
2023-03-27T22:04:21.680Z,8.75
2023-03-27T22:06:53.494Z,9.50
2023-03-27T22:09:25.099Z,6.57
2023-03-27T22:11:59.987Z,5.90
2023-03-27T22:14:31.720Z,5.07
2023-03-27T22:17:03.431Z,6.32
2023-03-27T22:19:35.099Z,6.97
2023-03-27T22:22:06.660Z,5.50
2023-03-27T22:24:38.353Z,6.03
2023-03-27T22:27:09.858Z,7.30
2023-03-27T22:29:41.376Z,8.00
2023-03-27T22:32:12.986Z,5.38
2023-03-27T22:34:44.564Z,6.87
2023-03-27T22:37:17.251Z,5.65
2023-03-27T22:39:48.915Z,7.63
2023-03-27T22:42:20.462Z,5.45
2023-03-27T22:44:51.984Z,6.45
2023-03-27T22:47:23.966Z,5.80
2023-03-27T22:49:55.519Z,6.95
2023-03-27T22:52:27.045Z,5.32
2023-03-27T22:54:58.609Z,7.30
2023-03-27T22:57:30.182Z,5.05
2023-03-27T23:00:01.851Z,5.37
2023-03-27T23:02:33.743Z,4.80
2023-03-27T23:05:05.820Z,2.95
2023-03-27T23:07:37.432Z,7.50
2023-03-27T23:10:09.596Z,6.43
2023-03-27T23:12:41.137Z,6.80
2023-03-27T23:15:12.732Z,4.97
2023-03-27T23:17:44.335Z,4.13
2023-03-27T23:20:15.941Z,7.30
2023-03-27T23:22:47.690Z,6.35
2023-03-27T23:25:19.289Z,5.55
2023-03-27T23:27:50.865Z,6.60
2023-03-27T23:30:22.453Z,8.05
2023-03-27T23:32:54.040Z,7.68
2023-03-27T23:35:25.668Z,6.00
2023-03-27T23:37:57.192Z,6.57
2023-03-27T23:40:28.824Z,6.40
2023-03-27T23:43:00.562Z,6.60
2023-03-27T23:45:32.077Z,3.37
2023-03-27T23:48:03.657Z,6.65
2023-03-27T23:50:35.371Z,7.45
2023-03-27T23:53:06.880Z,6.00
2023-03-27T23:55:38.607Z,4.97
2023-03-27T23:58:10.437Z,4.65
